MSC Turchia — A8IL9 — position and weather

sailwx.info

Track history (hours):
 
Tides and Currents Weather Stations Pressure Air Temp Water Temp Dewpoint Dewpoint Depression Visibility Wind Speed Wind Dir Waves Ship Positions

MSC Turchia

Last reported at 2014-Dec-14 17:10 UTC. Time now 2014-Dec-20 23:00 UTC.
Position N 44°30' E 036°32'.

Length 276 m; beam 40 m; draft 14 m.

Type: Ship. MMSI: 636091212.

Date/timePositionNaut miles runAvg speedWind from/ knotsBaromVisibWave heightAir tempDewpointWater temp
2014-Dec-14 17:10N 44°30' E 036°32'4312.0
2014-Dec-14 13:33N 43°59' E 035°51'1613.5
2014-Dec-14 12:22N 43°51' E 035°32'1113.4
2014-Dec-14 11:33N 43°46' E 035°19'1313.5
2014-Dec-14 10:33N 43°39' E 035°02'1313.4
2014-Dec-14 09:33N 43°32' E 034°46'1413.7
2014-Dec-14 08:33N 43°26' E 034°30'24313.9
2014-Dec-13 15:08N 41°28' E 029°42'813.8
2014-Dec-13 14:33N 41°24' E 029°33'1413.8
2014-Dec-13 13:33N 41°18' E 029°17'247 7.1
2014-Dec-12 02:33N 38°12' E 025°46'1514.8
2014-Dec-12 01:33N 37°57' E 025°48'1414.2
2014-Dec-12 00:33N 37°43' E 025°50'1514.6
2014-Dec-11 23:33N 37°28' E 025°53'1514.9
2014-Dec-11 22:33N 37°15' E 026°02'1514.8
2014-Dec-11 21:33N 37°02' E 026°10'1514.6
2014-Dec-11 20:31N 36°50' E 026°21'1414.7
2014-Dec-11 19:33N 36°39' E 026°33'3114.6
2014-Dec-11 17:25N 36°16' E 026°59'  
Track history (hours):
 
Tides and Currents Weather Stations Pressure Air Temp Water Temp Dewpoint Dewpoint Depression Visibility Wind Speed Wind Dir Waves Ship Positions

MSC Turchia

Last reported at 2014-Dec-14 17:10 UTC. Time now 2014-Dec-20 23:00 UTC.
Position N 44°30' E 036°32'.

Length 276 m; beam 40 m; draft 14 m.

Type: Ship. MMSI: 636091212.

Date/timePositionNaut miles runAvg speedWind from/ knotsBaromVisibWave heightAir tempDewpointWater temp
2014-Dec-14 17:10N 44°30' E 036°32'4312.0
2014-Dec-14 13:33N 43°59' E 035°51'1613.5
2014-Dec-14 12:22N 43°51' E 035°32'1113.4
2014-Dec-14 11:33N 43°46' E 035°19'1313.5
2014-Dec-14 10:33N 43°39' E 035°02'1313.4
2014-Dec-14 09:33N 43°32' E 034°46'1413.7
2014-Dec-14 08:33N 43°26' E 034°30'24313.9
2014-Dec-13 15:08N 41°28' E 029°42'813.8
2014-Dec-13 14:33N 41°24' E 029°33'1413.8
2014-Dec-13 13:33N 41°18' E 029°17'247 7.1
2014-Dec-12 02:33N 38°12' E 025°46'1514.8
2014-Dec-12 01:33N 37°57' E 025°48'1414.2
2014-Dec-12 00:33N 37°43' E 025°50'1514.6
2014-Dec-11 23:33N 37°28' E 025°53'1514.9
2014-Dec-11 22:33N 37°15' E 026°02'1514.8
2014-Dec-11 21:33N 37°02' E 026°10'1514.6
2014-Dec-11 20:31N 36°50' E 026°21'1414.7
2014-Dec-11 19:33N 36°39' E 026°33'3114.6
2014-Dec-11 17:25N 36°16' E 026°59'  

Dump ship's entire track history